Time;durP1;ratioP1;P1;durP2;ratioP2;P2;SDS_P1;SDS_P2;PMS_P1;PMS_P2;Temp;Humidity;BMP_temperature;BMP_pressure;BME280_temperature;BME280_humidity;BME280_pressure;Samples;Min_cycle;Max_cycle;Signal;HPM_P1;HPM_P2
2023/12/05 00:01:03;;;;;;;10.98;10.48;;;3.60;1.00;;;;;;4961639;28;20197;-81
2023/12/05 00:03:31;;;;;;;11.77;11.30;;;3.60;99.90;;;;;;4963643;28;20224;-80
2023/12/05 00:06:00;;;;;;;11.75;11.25;;;3.60;99.90;;;;;;4964427;28;20193;-81
2023/12/05 00:08:28;;;;;;;11.48;10.98;;;3.60;1.00;;;;;;4963728;28;20289;-80
2023/12/05 00:10:56;;;;;;;11.25;10.75;;;3.70;1.00;;;;;;4961766;28;20445;-82
2023/12/05 00:13:26;;;;;;;11.68;11.18;;;3.70;99.90;;;;;;4964169;28;20208;-81
2023/12/05 00:15:54;;;;;;;11.55;11.05;;;3.70;1.00;;;;;;4960353;28;20205;-82
2023/12/05 00:18:22;;;;;;;11.60;11.10;;;3.70;1.00;;;;;;4962935;28;20209;-81
2023/12/05 00:20:50;;;;;;;11.20;10.80;;;3.80;99.90;;;;;;4963865;28;20205;-81
2023/12/05 00:23:19;;;;;;;11.40;11.02;;;3.80;55.80;;;;;;4963770;28;20231;-81
2023/12/05 00:25:47;;;;;;;11.10;10.52;;;3.70;1.00;;;;;;4965210;28;20249;-81
2023/12/05 00:28:16;;;;;;;11.18;10.85;;;3.70;99.90;;;;;;4969447;28;20226;-82
2023/12/05 00:30:45;;;;;;;11.30;10.90;;;3.70;99.90;;;;;;4960485;28;20232;-81
2023/12/05 00:33:14;;;;;;;11.00;10.70;;;3.70;1.00;;;;;;4961244;28;20209;-81
2023/12/05 00:35:45;;;;;;;10.95;10.65;;;3.70;1.00;;;;;;4963458;28;20205;-81
2023/12/05 00:38:13;;;;;;;11.52;11.13;;;3.80;1.00;;;;;;4965156;28;20197;-80
2023/12/05 00:40:41;;;;;;;12.00;11.60;;;3.80;1.00;;;;;;4976773;28;20196;-80
2023/12/05 00:43:09;;;;;;;11.20;10.90;;;3.80;1.00;;;;;;4958393;28;20292;-82
2023/12/05 00:45:37;;;;;;;11.38;11.00;;;3.80;1.00;;;;;;4964429;28;20797;-81
2023/12/05 00:48:07;;;;;;;11.93;11.48;;;3.70;1.00;;;;;;4960050;28;20228;-81
2023/12/05 00:50:36;;;;;;;12.10;11.70;;;3.70;99.90;;;;;;4961356;28;20685;-81
2023/12/05 00:53:12;;;;;;;12.40;11.90;;;3.60;99.90;;;;;;4961263;28;20249;-81
2023/12/05 00:55:41;;;;;;;13.02;12.10;;;3.60;99.90;;;;;;4957881;28;20231;-83
2023/12/05 00:58:09;;;;;;;12.15;11.75;;;3.60;99.90;;;;;;4959255;28;20216;-82
2023/12/05 01:00:37;;;;;;;12.10;11.70;;;3.70;99.90;;;;;;4957707;28;20553;-83
2023/12/05 01:03:07;;;;;;;12.10;11.70;;;3.80;99.90;;;;;;4960263;28;20204;-80
2023/12/05 01:05:35;;;;;;;11.57;11.27;;;3.80;99.90;;;;;;4958387;28;20217;-82
2023/12/05 01:08:04;;;;;;;12.73;12.23;;;3.80;99.90;;;;;;4960171;28;20220;-82
2023/12/05 01:10:32;;;;;;;12.02;11.60;;;3.80;99.90;;;;;;4959941;28;20201;-82
2023/12/05 01:13:02;;;;;;;12.48;12.00;;;3.80;99.90;;;;;;4958886;28;20208;-83
2023/12/05 01:15:30;;;;;;;12.68;12.18;;;3.90;99.90;;;;;;4957441;28;20207;-83
2023/12/05 01:17:58;;;;;;;12.80;12.30;;;3.90;99.90;;;;;;4960414;28;20231;-83
2023/12/05 01:20:28;;;;;;;12.20;11.70;;;3.80;99.90;;;;;;4958307;28;20213;-82
2023/12/05 01:22:56;;;;;;;13.05;12.60;;;3.90;96.70;;;;;;4960725;28;20197;-83
2023/12/05 01:25:25;;;;;;;12.35;11.85;;;3.90;99.90;;;;;;4959883;28;20298;-83
2023/12/05 01:27:53;;;;;;;12.00;11.57;;;3.90;99.90;;;;;;4957028;28;20224;-82
2023/12/05 01:30:22;;;;;;;12.02;11.63;;;3.90;9.50;;;;;;4958826;28;20208;-81
2023/12/05 01:32:50;;;;;;;12.45;11.95;;;3.90;21.80;;;;;;4959176;28;20631;-81
2023/12/05 01:35:18;;;;;;;12.80;12.25;;;3.90;1.00;;;;;;4961472;28;20720;-80
2023/12/05 01:37:49;;;;;;;13.60;12.80;;;3.90;1.00;;;;;;4962216;28;20875;-81
2023/12/05 01:40:17;;;;;;;13.35;12.65;;;3.90;1.00;;;;;;4960689;28;20788;-81
2023/12/05 01:42:45;;;;;;;13.15;12.65;;;3.90;37.90;;;;;;4963981;28;20287;-81
2023/12/05 01:45:14;;;;;;;13.15;12.65;;;3.90;1.00;;;;;;4958761;28;20213;-79
2023/12/05 01:47:43;;;;;;;13.00;12.52;;;3.80;1.00;;;;;;4960030;28;20217;-80
2023/12/05 01:50:14;;;;;;;12.90;12.30;;;3.80;1.00;;;;;;4961402;28;20204;-80
2023/12/05 01:52:48;;;;;;;13.00;12.50;;;3.90;1.00;;;;;;4959244;28;20205;-81
2023/12/05 01:55:17;;;;;;;13.48;12.88;;;3.80;1.00;;;;;;4959271;28;20749;-81
2023/12/05 01:57:47;;;;;;;13.30;12.80;;;3.80;1.00;;;;;;4959558;28;20217;-81
2023/12/05 02:00:17;;;;;;;13.68;13.00;;;3.70;99.90;;;;;;4961282;28;20690;-81
2023/12/05 02:02:46;;;;;;;12.85;12.25;;;3.70;99.90;;;;;;4962332;28;20212;-81
2023/12/05 02:05:15;;;;;;;13.50;12.90;;;3.80;8.00;;;;;;4960672;28;20251;-81
2023/12/05 02:07:44;;;;;;;13.70;13.00;;;3.80;1.00;;;;;;4963790;28;20306;-80
2023/12/05 02:10:14;;;;;;;13.93;13.23;;;3.80;1.00;;;;;;4962068;28;20297;-82
2023/12/05 02:12:42;;;;;;;13.70;13.00;;;3.80;1.00;;;;;;4961299;28;20201;-83
2023/12/05 02:15:11;;;;;;;13.55;12.80;;;3.70;1.00;;;;;;4959042;28;20236;-82
2023/12/05 02:17:45;;;;;;;13.20;12.70;;;3.70;1.00;;;;;;4960103;28;20231;-81
2023/12/05 02:20:21;;;;;;;14.02;13.23;;;3.70;63.90;;;;;;4960837;28;20239;-83
2023/12/05 02:23:11;;;;;;;12.60;12.10;;;3.70;86.00;;;;;;4973385;28;20204;-80
2023/12/05 02:25:51;;;;;;;13.68;12.95;;;3.80;99.90;;;;;;4960843;28;20224;-81
2023/12/05 02:28:21;;;;;;;12.88;12.38;;;3.80;60.80;;;;;;4961783;28;20769;-80
2023/12/05 02:30:49;;;;;;;12.80;12.30;;;3.80;1.00;;;;;;4956758;28;20316;-81
2023/12/05 02:33:17;;;;;;;14.05;13.35;;;3.80;1.00;;;;;;4956634;28;20882;-82
2023/12/05 02:35:47;;;;;;;13.10;12.60;;;3.80;99.90;;;;;;4958920;28;20189;-82
2023/12/05 02:38:21;;;;;;;13.73;13.02;;;3.90;1.00;;;;;;4957694;28;20228;-83
2023/12/05 02:40:57;;;;;;;13.20;12.60;;;3.90;1.00;;;;;;4965118;28;20204;-83
2023/12/05 02:43:36;;;;;;;13.55;12.95;;;3.90;1.00;;;;;;4962659;28;20314;-83
2023/12/05 02:46:08;;;;;;;13.25;12.65;;;3.90;1.00;;;;;;4960528;28;20212;-83
2023/12/05 02:48:38;;;;;;;12.98;12.40;;;3.90;1.00;;;;;;4959103;28;20204;-82
2023/12/05 02:51:07;;;;;;;13.07;12.27;;;3.90;99.90;;;;;;4962114;28;20204;-81
2023/12/05 02:53:35;;;;;;;12.80;12.40;;;3.90;99.90;;;;;;4961540;28;20208;-82
2023/12/05 02:56:05;;;;;;;13.23;12.57;;;3.90;1.00;;;;;;4961396;28;20197;-82
2023/12/05 02:58:34;;;;;;;13.50;12.88;;;3.80;1.00;;;;;;4963282;28;20264;-84
2023/12/05 03:01:03;;;;;;;13.82;13.07;;;3.90;1.00;;;;;;4962556;28;20204;-83
2023/12/05 03:03:31;;;;;;;12.70;12.23;;;3.90;44.50;;;;;;4973961;28;20303;-82
2023/12/05 03:06:00;;;;;;;13.40;12.80;;;3.90;99.90;;;;;;4961404;28;20742;-81
2023/12/05 03:08:28;;;;;;;14.40;13.70;;;3.90;99.90;;;;;;4962759;28;21090;-82
2023/12/05 03:10:56;;;;;;;13.98;13.38;;;3.90;99.90;;;;;;4961731;28;20201;-82
2023/12/05 03:13:38;;;;;;;13.77;13.25;;;3.90;99.90;;;;;;4960706;28;20208;-82
2023/12/05 03:16:07;;;;;;;14.10;13.45;;;3.90;99.90;;;;;;4961260;28;20429;-80
2023/12/05 03:18:35;;;;;;;15.15;14.45;;;3.80;99.90;;;;;;4960579;28;20208;-81
2023/12/05 03:21:04;;;;;;;14.93;14.18;;;3.80;99.90;;;;;;4959681;28;20204;-82
2023/12/05 03:23:33;;;;;;;16.02;15.10;;;3.90;99.90;;;;;;4960884;28;20236;-82
2023/12/05 03:26:01;;;;;;;14.60;13.90;;;3.90;99.90;;;;;;4960332;28;20228;-81
2023/12/05 03:28:30;;;;;;;14.82;14.23;;;3.90;92.60;;;;;;4964275;28;20228;-81
2023/12/05 03:30:59;;;;;;;14.73;13.98;;;3.90;99.90;;;;;;4959954;28;20288;-82
2023/12/05 03:33:27;;;;;;;14.60;13.80;;;3.90;99.90;;;;;;4959456;28;20729;-81
2023/12/05 03:35:55;;;;;;;14.90;14.10;;;3.90;99.90;;;;;;4960889;28;20189;-81
2023/12/05 03:38:24;;;;;;;13.93;13.23;;;3.90;99.90;;;;;;4962277;28;21167;-81
2023/12/05 03:40:52;;;;;;;15.35;14.55;;;3.90;99.90;;;;;;4962813;28;20264;-82
2023/12/05 03:43:20;;;;;;;15.52;14.73;;;4.00;99.90;;;;;;4962748;28;20204;-82
2023/12/05 03:45:48;;;;;;;17.05;16.05;;;4.00;99.90;;;;;;4961942;28;20292;-80
2023/12/05 03:48:18;;;;;;;14.75;14.05;;;4.00;99.90;;;;;;4962100;28;20659;-81
2023/12/05 03:50:46;;;;;;;14.57;13.77;;;3.90;99.90;;;;;;4963530;28;20284;-82
2023/12/05 03:53:14;;;;;;;15.25;14.48;;;4.00;99.90;;;;;;4964928;28;20208;-82
2023/12/05 03:55:43;;;;;;;15.13;14.43;;;4.00;99.90;;;;;;4962501;28;20209;-81
2023/12/05 03:58:11;;;;;;;14.75;14.05;;;4.00;99.90;;;;;;4965367;28;20243;-82
2023/12/05 04:00:39;;;;;;;15.23;14.55;;;4.00;99.90;;;;;;4964204;28;20193;-81
2023/12/05 04:03:08;;;;;;;14.68;13.88;;;4.00;99.90;;;;;;4953262;28;20220;-80
2023/12/05 04:05:38;;;;;;;15.40;14.57;;;4.00;99.90;;;;;;4960241;28;20204;-81
2023/12/05 04:08:07;;;;;;;14.10;13.40;;;4.10;99.90;;;;;;4963121;28;20318;-81
2023/12/05 04:10:35;;;;;;;15.15;14.25;;;4.10;99.90;;;;;;4958707;28;20205;-82
2023/12/05 04:13:03;;;;;;;15.38;14.50;;;4.10;99.90;;;;;;4963406;28;20224;-81
2023/12/05 04:15:31;;;;;;;14.65;13.95;;;4.10;99.90;;;;;;4961945;28;20205;-82
2023/12/05 04:18:01;;;;;;;14.40;13.80;;;4.10;99.90;;;;;;4962736;28;20223;-82
2023/12/05 04:20:29;;;;;;;13.98;13.43;;;4.10;7.00;;;;;;4958040;28;20288;-82
2023/12/05 04:22:58;;;;;;;14.02;13.52;;;4.10;1.00;;;;;;4963778;28;20213;-82
2023/12/05 04:25:26;;;;;;;14.88;14.15;;;4.10;1.00;;;;;;4964161;28;21440;-81
2023/12/05 04:27:55;;;;;;;13.98;13.48;;;4.20;21.10;;;;;;4958916;28;20599;-82
2023/12/05 04:30:23;;;;;;;14.10;13.43;;;4.10;1.00;;;;;;4962726;28;20215;-83
2023/12/05 04:32:51;;;;;;;13.82;13.27;;;4.20;1.00;;;;;;4958797;28;20221;-83
2023/12/05 04:35:19;;;;;;;13.70;13.10;;;4.20;63.10;;;;;;4962940;28;20257;-83
2023/12/05 04:37:50;;;;;;;13.60;13.10;;;4.20;63.10;;;;;;4958960;28;20224;-83
2023/12/05 04:40:20;;;;;;;14.35;13.68;;;4.20;99.90;;;;;;4959884;28;21033;-83
2023/12/05 04:42:48;;;;;;;14.00;13.50;;;4.20;65.10;;;;;;4973954;28;20247;-83
2023/12/05 04:45:16;;;;;;;13.82;13.23;;;4.20;99.90;;;;;;4960558;28;20279;-83
2023/12/05 04:47:46;;;;;;;14.40;13.90;;;4.10;99.90;;;;;;4962092;28;20243;-82
2023/12/05 04:50:14;;;;;;;13.70;13.15;;;4.10;99.90;;;;;;4959862;28;20201;-81
2023/12/05 04:52:42;;;;;;;13.40;12.80;;;4.20;99.90;;;;;;4958675;28;20204;-82
2023/12/05 04:55:10;;;;;;;13.65;13.15;;;4.20;99.90;;;;;;4958727;28;20213;-82
2023/12/05 04:57:40;;;;;;;14.05;13.55;;;4.20;99.90;;;;;;4961288;28;20242;-82
2023/12/05 05:00:12;;;;;;;13.95;13.45;;;4.30;88.00;;;;;;4959927;28;20211;-82
2023/12/05 05:02:41;;;;;;;13.90;13.30;;;4.30;1.00;;;;;;4959904;28;20217;-83
2023/12/05 05:05:09;;;;;;;13.88;13.30;;;4.30;1.00;;;;;;4958442;28;20208;-81
2023/12/05 05:07:38;;;;;;;13.30;12.90;;;4.30;1.00;;;;;;4959044;28;20215;-83
2023/12/05 05:10:07;;;;;;;13.90;13.30;;;4.30;1.00;;;;;;4962722;28;20240;-83
2023/12/05 05:12:35;;;;;;;13.10;12.60;;;4.30;99.90;;;;;;4968130;28;20243;-81
2023/12/05 05:15:06;;;;;;;13.77;13.25;;;4.40;99.90;;;;;;4962143;28;20287;-82
2023/12/05 05:17:34;;;;;;;14.10;13.25;;;4.40;99.90;;;;;;4957818;28;20901;-81
2023/12/05 05:20:03;;;;;;;14.60;13.77;;;4.40;99.90;;;;;;4957865;28;20303;-81
2023/12/05 05:22:31;;;;;;;14.13;13.70;;;4.40;58.70;;;;;;4962865;28;20308;-82
2023/12/05 05:24:59;;;;;;;14.30;13.80;;;4.40;1.00;;;;;;4960403;28;20283;-80
2023/12/05 05:27:28;;;;;;;13.93;13.43;;;4.30;1.00;;;;;;4958439;28;20232;-81
2023/12/05 05:29:56;;;;;;;13.90;13.40;;;4.30;70.00;;;;;;4960067;28;20669;-80
2023/12/05 05:32:26;;;;;;;14.68;14.10;;;4.30;83.40;;;;;;4955597;28;20200;-81
2023/12/05 05:34:54;;;;;;;13.55;13.10;;;4.30;93.60;;;;;;4961263;28;20201;-80
2023/12/05 05:37:22;;;;;;;13.70;13.20;;;4.20;99.90;;;;;;4961405;28;20279;-80
2023/12/05 05:39:51;;;;;;;13.85;13.35;;;4.30;64.20;;;;;;4958759;28;20204;-79
2023/12/05 05:42:19;;;;;;;13.80;13.30;;;4.20;63.90;;;;;;4960433;28;20196;-80
2023/12/05 05:44:47;;;;;;;14.10;13.60;;;4.20;89.70;;;;;;4959658;28;20343;-79
2023/12/05 05:47:15;;;;;;;14.10;13.50;;;4.20;99.90;;;;;;4959491;28;20219;-81
2023/12/05 05:49:45;;;;;;;14.95;14.45;;;4.20;99.90;;;;;;4956836;28;20232;-79
2023/12/05 05:52:13;;;;;;;14.48;13.75;;;4.20;99.90;;;;;;4958873;28;20209;-80
2023/12/05 05:54:41;;;;;;;15.07;14.15;;;4.20;1.00;;;;;;4959035;28;20205;-78
2023/12/05 05:57:09;;;;;;;14.57;13.98;;;4.20;38.90;;;;;;4963077;28;20340;-79
2023/12/05 05:59:38;;;;;;;14.50;13.93;;;4.20;1.00;;;;;;4959600;28;20287;-79
2023/12/05 06:02:06;;;;;;;14.95;14.35;;;4.20;1.00;;;;;;4959990;28;20204;-78
2023/12/05 06:04:34;;;;;;;13.80;13.30;;;4.20;1.00;;;;;;4954945;28;20252;-80
2023/12/05 06:07:04;;;;;;;14.23;13.68;;;4.20;1.00;;;;;;4959494;28;20307;-80
2023/12/05 06:09:33;;;;;;;14.15;13.45;;;4.20;1.00;;;;;;4957538;28;20215;-78
2023/12/05 06:12:02;;;;;;;13.80;13.20;;;4.20;1.00;;;;;;4955264;28;20208;-78
2023/12/05 06:14:30;;;;;;;13.80;13.30;;;4.10;99.90;;;;;;4965094;28;20232;-78
2023/12/05 06:16:58;;;;;;;13.85;13.25;;;4.10;99.90;;;;;;4963742;28;20322;-79
2023/12/05 06:19:27;;;;;;;13.40;12.82;;;4.10;99.90;;;;;;4963263;28;20218;-78
2023/12/05 06:21:55;;;;;;;15.50;14.60;;;4.10;99.90;;;;;;4958452;28;20196;-77
2023/12/05 06:24:26;;;;;;;13.45;12.75;;;4.10;99.90;;;;;;4960355;28;20292;-77
2023/12/05 06:26:54;;;;;;;15.68;14.75;;;4.20;1.00;;;;;;4962891;28;20262;-78
2023/12/05 06:29:23;;;;;;;17.23;16.02;;;4.10;1.00;;;;;;4961054;28;20711;-79
2023/12/05 06:31:51;;;;;;;20.27;18.55;;;4.10;99.90;;;;;;4957663;28;20197;-78
2023/12/05 06:34:19;;;;;;;15.30;14.35;;;4.10;1.00;;;;;;4956149;28;20235;-79
2023/12/05 06:36:47;;;;;;;15.02;13.95;;;4.10;1.00;;;;;;4961751;28;20262;-78
2023/12/05 06:39:16;;;;;;;13.70;12.90;;;4.10;1.00;;;;;;4963072;28;20246;-78
2023/12/05 06:41:46;;;;;;;13.80;13.30;;;4.10;99.90;;;;;;4960516;28;20682;-76
2023/12/05 06:44:14;;;;;;;13.73;13.13;;;4.10;23.10;;;;;;4958450;28;20219;-78
2023/12/05 06:46:42;;;;;;;13.07;12.57;;;4.10;1.00;;;;;;4958535;28;20230;-80
2023/12/05 06:49:10;;;;;;;13.02;12.45;;;4.00;1.00;;;;;;4960716;28;20221;-80
2023/12/05 06:51:40;;;;;;;13.25;12.65;;;4.10;72.90;;;;;;4959911;28;20291;-79
2023/12/05 06:54:08;;;;;;;12.73;12.23;;;4.00;1.00;;;;;;4959906;28;20197;-78
2023/12/05 06:56:36;;;;;;;12.52;12.02;;;4.10;1.00;;;;;;4957568;28;20230;-78
2023/12/05 06:59:06;;;;;;;13.02;12.52;;;4.00;99.90;;;;;;4958433;28;20304;-80
2023/12/05 07:01:34;;;;;;;12.75;12.38;;;4.10;99.90;;;;;;4959650;28;20217;-78
2023/12/05 07:04:02;;;;;;;12.30;11.90;;;4.00;99.90;;;;;;4959853;28;20205;-78
2023/12/05 07:06:30;;;;;;;12.30;12.00;;;4.10;1.00;;;;;;4957907;28;20225;-79
2023/12/05 07:08:59;;;;;;;12.95;12.50;;;4.10;1.00;;;;;;4959922;28;20224;-78
2023/12/05 07:11:30;;;;;;;12.43;12.10;;;4.10;99.90;;;;;;4961513;28;20211;-79
2023/12/05 07:13:58;;;;;;;12.48;11.98;;;4.20;1.00;;;;;;4961051;28;20233;-79
2023/12/05 07:16:27;;;;;;;12.00;11.50;;;4.10;99.90;;;;;;4960660;28;20232;-79
2023/12/05 07:18:56;;;;;;;12.45;12.02;;;4.10;17.40;;;;;;4958048;28;20215;-79
2023/12/05 07:21:24;;;;;;;12.45;12.05;;;4.10;1.00;;;;;;4959539;28;20213;-77
2023/12/05 07:23:52;;;;;;;12.70;12.20;;;4.20;1.00;;;;;;4960599;28;20197;-78
2023/12/05 07:26:28;;;;;;;12.52;12.05;;;4.20;99.90;;;;;;4961700;28;20262;-79
2023/12/05 07:28:56;;;;;;;12.65;12.15;;;4.30;99.90;;;;;;4960705;28;20232;-79
2023/12/05 07:31:24;;;;;;;12.65;12.00;;;4.20;1.00;;;;;;4959534;28;20696;-79
2023/12/05 07:33:57;;;;;;;12.13;11.73;;;4.20;99.90;;;;;;4955949;28;20250;-79
2023/12/05 07:36:26;;;;;;;12.70;12.20;;;4.20;43.30;;;;;;4956877;28;20240;-80
2023/12/05 07:38:54;;;;;;;13.05;12.50;;;4.20;1.00;;;;;;4962804;28;20197;-78
2023/12/05 07:41:23;;;;;;;12.75;12.25;;;4.20;1.00;;;;;;4961205;28;20303;-78
2023/12/05 07:43:51;;;;;;;12.55;12.05;;;4.30;99.90;;;;;;4959345;28;20574;-79
2023/12/05 07:46:19;;;;;;;12.77;12.38;;;4.30;70.40;;;;;;4958763;28;20240;-78
2023/12/05 07:48:48;;;;;;;13.30;12.90;;;4.30;1.00;;;;;;4957525;28;20229;-78
2023/12/05 07:51:17;;;;;;;13.10;12.60;;;4.30;1.00;;;;;;4959906;28;20279;-79
2023/12/05 07:53:49;;;;;;;13.23;12.50;;;4.40;1.00;;;;;;4960926;28;20196;-78
2023/12/05 07:56:18;;;;;;;12.88;12.48;;;4.50;99.90;;;;;;4960597;28;20258;-79
2023/12/05 07:58:46;;;;;;;13.00;12.40;;;4.60;99.90;;;;;;4960025;28;20211;-78
2023/12/05 08:01:14;;;;;;;13.50;13.00;;;4.60;99.90;;;;;;4960725;28;20208;-79
2023/12/05 08:03:42;;;;;;;13.27;12.88;;;4.70;1.00;;;;;;4959171;28;20208;-80
2023/12/05 08:06:12;;;;;;;12.52;12.13;;;4.70;99.90;;;;;;4957843;28;20205;-79
2023/12/05 08:08:41;;;;;;;13.60;12.90;;;4.80;99.90;;;;;;4961661;28;20239;-79
2023/12/05 08:11:11;;;;;;;13.35;12.85;;;4.80;1.00;;;;;;4948221;28;20757;-78
2023/12/05 08:13:39;;;;;;;13.07;12.68;;;4.80;1.00;;;;;;4947963;28;20209;-79
2023/12/05 08:16:09;;;;;;;13.50;13.07;;;4.80;1.00;;;;;;4957013;28;20232;-79
2023/12/05 08:18:37;;;;;;;12.90;12.60;;;5.00;21.40;;;;;;4956577;28;20201;-78
2023/12/05 08:21:06;;;;;;;13.23;12.80;;;5.10;99.90;;;;;;4956306;28;20255;-79
2023/12/05 08:23:34;;;;;;;12.77;12.38;;;5.10;99.90;;;;;;4954911;28;20208;-79
2023/12/05 08:26:05;;;;;;;13.38;12.90;;;5.10;99.90;;;;;;4957182;28;20201;-80
2023/12/05 08:28:34;;;;;;;13.35;12.85;;;5.20;99.90;;;;;;4954392;28;20279;-78
2023/12/05 08:31:02;;;;;;;12.20;11.90;;;5.30;1.00;;;;;;4956155;28;20200;-79
2023/12/05 08:33:31;;;;;;;12.82;12.32;;;5.30;1.00;;;;;;4954912;28;20492;-78
2023/12/05 08:35:59;;;;;;;13.30;12.80;;;5.30;1.00;;;;;;4958382;28;20712;-78
2023/12/05 08:38:27;;;;;;;13.07;12.68;;;5.30;1.00;;;;;;4956357;28;20212;-77
2023/12/05 08:40:56;;;;;;;12.32;11.98;;;5.40;1.00;;;;;;4956289;28;20201;-79
2023/12/05 08:43:26;;;;;;;12.87;12.47;;;5.40;99.90;;;;;;4956320;28;20212;-78
2023/12/05 08:45:56;;;;;;;12.80;12.40;;;5.50;99.90;;;;;;4957269;28;20980;-78
2023/12/05 08:48:24;;;;;;;13.60;13.10;;;5.50;99.90;;;;;;4954115;28;20471;-80
2023/12/05 08:50:52;;;;;;;13.10;12.60;;;5.60;99.90;;;;;;4956654;28;20456;-79
2023/12/05 08:53:21;;;;;;;13.20;12.70;;;5.70;99.90;;;;;;4957060;28;20550;-79
2023/12/05 08:55:49;;;;;;;13.05;12.65;;;5.60;23.40;;;;;;4954547;28;20682;-78
2023/12/05 08:58:17;;;;;;;12.60;12.20;;;5.50;35.40;;;;;;4960583;28;20234;-79
2023/12/05 09:00:47;;;;;;;12.80;12.40;;;5.60;99.90;;;;;;4958964;28;20200;-78
2023/12/05 09:03:15;;;;;;;13.10;12.70;;;5.80;1.00;;;;;;4958139;28;20584;-79
2023/12/05 09:05:44;;;;;;;13.00;12.60;;;5.70;1.00;;;;;;4961660;28;20199;-78
2023/12/05 09:08:12;;;;;;;13.10;12.67;;;5.90;1.00;;;;;;4959352;28;20480;-79
2023/12/05 09:10:40;;;;;;;12.65;12.35;;;5.70;1.00;;;;;;4956176;28;21004;-78
2023/12/05 09:13:09;;;;;;;13.00;12.70;;;5.70;1.00;;;;;;4960002;28;20224;-77
2023/12/05 09:15:37;;;;;;;13.07;12.57;;;5.80;1.00;;;;;;4949092;28;20564;-78
2023/12/05 09:18:07;;;;;;;11.80;11.60;;;5.70;1.00;;;;;;4954816;28;20224;-79
2023/12/05 09:20:35;;;;;;;13.00;12.45;;;5.70;1.00;;;;;;4954274;28;20475;-78
2023/12/05 09:23:03;;;;;;;12.60;12.30;;;5.80;1.00;;;;;;4957803;28;20233;-79
2023/12/05 09:25:31;;;;;;;13.32;12.75;;;5.70;1.00;;;;;;4954329;28;20452;-78
2023/12/05 09:28:00;;;;;;;12.80;12.40;;;5.70;1.00;;;;;;4959519;28;20221;-79
2023/12/05 09:30:29;;;;;;;12.40;12.00;;;5.60;1.00;;;;;;4958245;28;20986;-80
2023/12/05 09:32:57;;;;;;;12.70;12.30;;;5.60;1.00;;;;;;4956571;28;20295;-80
2023/12/05 09:35:26;;;;;;;12.93;12.53;;;5.60;1.00;;;;;;4958281;28;20751;-80
2023/12/05 09:37:56;;;;;;;12.80;12.27;;;5.60;1.00;;;;;;4954038;28;20480;-78
2023/12/05 09:40:24;;;;;;;12.40;12.10;;;5.70;1.00;;;;;;4958320;28;20292;-76
2023/12/05 09:42:54;;;;;;;13.00;12.70;;;5.70;1.00;;;;;;4957792;28;20331;-79
2023/12/05 09:45:28;;;;;;;12.93;12.32;;;5.80;1.00;;;;;;4959698;28;20208;-80
2023/12/05 09:48:01;;;;;;;12.73;12.23;;;5.80;1.00;;;;;;4959279;28;20216;-79
2023/12/05 09:50:31;;;;;;;12.10;11.70;;;5.90;99.90;;;;;;4954568;28;20267;-80
2023/12/05 09:53:01;;;;;;;12.77;12.27;;;6.20;99.90;;;;;;4953510;28;20974;-79
2023/12/05 09:55:30;;;;;;;13.47;12.97;;;6.70;99.90;;;;;;4955229;28;20460;-78
2023/12/05 09:57:59;;;;;;;13.33;12.60;;;6.80;12.70;;;;;;4953694;28;20606;-78
2023/12/05 10:00:28;;;;;;;12.10;11.70;;;6.60;1.00;;;;;;4953700;28;20456;-78
2023/12/05 10:03:00;;;;;;;11.93;11.73;;;6.50;90.20;;;;;;4957126;28;20515;-78
2023/12/05 10:05:32;;;;;;;12.40;12.00;;;6.40;51.10;;;;;;4957728;28;20463;-80
2023/12/05 10:08:01;;;;;;;12.97;12.50;;;6.40;99.90;;;;;;4958148;28;21020;-79
2023/12/05 10:10:33;;;;;;;13.10;12.80;;;7.10;99.90;;;;;;4954665;28;20480;-78
2023/12/05 10:13:02;;;;;;;12.80;12.40;;;7.90;1.00;;;;;;4954566;28;20463;-79
2023/12/05 10:15:32;;;;;;;12.90;12.40;;;8.20;1.00;;;;;;4958178;28;20463;-79
2023/12/05 10:18:00;;;;;;;12.40;12.10;;;8.60;99.90;;;;;;4959065;28;20537;-79
2023/12/05 10:20:29;;;;;;;12.40;12.10;;;8.80;99.90;;;;;;4958262;28;20451;-78
2023/12/05 10:22:59;;;;;;;13.00;12.60;;;8.00;99.90;;;;;;4956060;28;20546;-78
2023/12/05 10:25:27;;;;;;;12.93;12.43;;;7.70;99.90;;;;;;4955931;28;20460;-78
2023/12/05 10:28:03;;;;;;;12.67;12.20;;;7.20;1.00;;;;;;4953541;28;20475;-78
2023/12/05 10:30:32;;;;;;;12.40;12.00;;;7.20;1.00;;;;;;4959380;28;20484;-78
2023/12/05 10:33:11;;;;;;;12.10;11.70;;;6.90;1.00;;;;;;4957833;28;20440;-79
2023/12/05 10:35:41;;;;;;;11.20;11.00;;;6.80;1.00;;;;;;4959593;28;20543;-78
2023/12/05 10:38:13;;;;;;;12.03;11.50;;;6.80;1.00;;;;;;4954375;28;20570;-79
2023/12/05 10:40:52;;;;;;;11.60;11.20;;;7.10;1.00;;;;;;4954812;28;20448;-78
2023/12/05 10:43:22;;;;;;;11.67;11.30;;;6.90;1.00;;;;;;4951717;28;20447;-79
2023/12/05 10:45:50;;;;;;;11.37;11.00;;;7.10;1.00;;;;;;4955221;28;21349;-78
2023/12/05 10:48:20;;;;;;;11.20;11.00;;;6.70;1.00;;;;;;4955150;28;20488;-78
2023/12/05 10:50:51;;;;;;;11.10;10.80;;;6.80;1.00;;;;;;4958778;28;20486;-78
2023/12/05 10:53:21;;;;;;;11.27;11.00;;;6.80;1.00;;;;;;4956415;28;20489;-79
2023/12/05 10:55:49;;;;;;;11.13;10.93;;;6.90;1.00;;;;;;4960880;28;20464;-77
2023/12/05 10:58:18;;;;;;;11.70;11.30;;;6.80;1.00;;;;;;4956687;28;20537;-78
2023/12/05 11:00:49;;;;;;;11.90;11.60;;;7.20;18.60;;;;;;4959745;28;20925;-79
2023/12/05 11:03:17;;;;;;;13.13;12.83;;;7.50;1.00;;;;;;4966648;28;20504;-78
2023/12/05 11:05:46;;;;;;;12.30;12.00;;;7.80;1.00;;;;;;4961459;28;20482;-79
2023/12/05 11:08:14;;;;;;;12.90;12.50;;;8.20;1.00;;;;;;4961155;28;20476;-80
2023/12/05 11:10:44;;;;;;;12.20;11.90;;;8.70;1.00;;;;;;4962350;28;20483;-79
2023/12/05 11:13:13;;;;;;;11.97;11.67;;;9.10;99.90;;;;;;4959900;28;20466;-79
2023/12/05 11:15:44;;;;;;;11.57;11.27;;;9.40;99.90;;;;;;4961702;28;20483;-79
2023/12/05 11:18:22;;;;;;;12.03;11.63;;;9.20;99.90;;;;;;4959653;28;20997;-79
2023/12/05 11:20:59;;;;;;;11.73;11.43;;;9.10;99.90;;;;;;4959090;28;20991;-80
2023/12/05 11:23:49;;;;;;;11.53;11.27;;;9.00;99.90;;;;;;4962456;28;21438;-80
2023/12/05 11:26:37;;;;;;;11.50;11.20;;;8.80;99.90;;;;;;4956625;28;20523;-79
2023/12/05 11:29:29;;;;;;;12.30;12.00;;;8.50;99.90;;;;;;4962769;28;20938;-80
2023/12/05 11:32:10;;;;;;;11.87;11.57;;;8.60;99.90;;;;;;4962393;28;20514;-79
2023/12/05 11:34:55;;;;;;;11.50;11.30;;;8.50;99.90;;;;;;4964758;28;20459;-80
2023/12/05 11:37:41;;;;;;;11.90;11.70;;;8.60;99.90;;;;;;4961892;28;20535;-78
2023/12/05 11:40:10;;;;;;;12.77;12.40;;;8.60;99.90;;;;;;4961877;28;20471;-80
2023/12/05 11:43:10;;;;;;;12.53;12.20;;;8.40;99.90;;;;;;4977943;28;20475;-79
2023/12/05 11:45:38;;;;;;;12.37;12.07;;;8.50;99.90;;;;;;4963480;28;20898;-79
2023/12/05 11:48:10;;;;;;;12.10;11.70;;;8.60;99.90;;;;;;4963487;28;20475;-80
2023/12/05 11:50:44;;;;;;;12.77;12.43;;;8.50;99.90;;;;;;4962751;28;20494;-78
2023/12/05 11:53:14;;;;;;;11.90;11.50;;;8.60;99.90;;;;;;4964161;28;20462;-79
2023/12/05 11:55:45;;;;;;;12.57;12.27;;;8.40;99.90;;;;;;4960362;28;20468;-80
2023/12/05 11:58:28;;;;;;;12.43;12.13;;;8.20;99.90;;;;;;4961643;28;21027;-79
2023/12/05 12:01:06;;;;;;;12.00;11.77;;;8.20;99.90;;;;;;4972812;28;20794;-79
2023/12/05 12:03:48;;;;;;;12.40;12.00;;;7.90;99.90;;;;;;4959140;28;21418;-79
2023/12/05 12:06:17;;;;;;;12.03;11.70;;;7.80;99.90;;;;;;4961795;28;20460;-79
2023/12/05 12:08:48;;;;;;;12.50;12.20;;;7.90;99.90;;;;;;4961559;28;20489;-79
2023/12/05 12:11:18;;;;;;;12.73;12.10;;;8.00;99.90;;;;;;4967452;28;20526;-80
2023/12/05 12:13:49;;;;;;;12.77;12.47;;;8.00;99.90;;;;;;4962899;28;20554;-80
2023/12/05 12:16:19;;;;;;;12.40;11.90;;;8.10;99.90;;;;;;4961722;28;22212;-81
2023/12/05 12:18:48;;;;;;;12.30;11.90;;;8.20;99.90;;;;;;4962603;28;20868;-80
2023/12/05 12:21:28;;;;;;;12.47;12.13;;;8.20;99.90;;;;;;4964080;28;20458;-80
2023/12/05 12:23:57;;;;;;;12.60;12.30;;;8.40;99.90;;;;;;4978662;28;20479;-80
2023/12/05 12:26:27;;;;;;;11.80;11.50;;;8.30;99.90;;;;;;4962118;28;20519;-80
2023/12/05 12:29:06;;;;;;;11.80;11.60;;;8.30;99.90;;;;;;4960472;28;20459;-79
2023/12/05 12:31:35;;;;;;;11.90;11.60;;;8.40;99.90;;;;;;4963349;28;20570;-79
2023/12/05 12:34:05;;;;;;;12.10;11.77;;;8.40;99.90;;;;;;4959853;28;20526;-79
2023/12/05 12:36:36;;;;;;;11.90;11.50;;;8.40;99.90;;;;;;4961845;28;20522;-80
2023/12/05 12:39:05;;;;;;;11.90;11.33;;;8.40;99.90;;;;;;4960686;28;20453;-79
2023/12/05 12:41:33;;;;;;;11.77;11.47;;;8.40;99.90;;;;;;4961501;28;20480;-79
2023/12/05 12:44:05;;;;;;;11.80;11.50;;;8.40;99.90;;;;;;4953933;28;20834;-79
2023/12/05 12:46:33;;;;;;;11.97;11.63;;;8.40;99.90;;;;;;4960927;28;20499;-80
2023/12/05 12:49:02;;;;;;;11.50;11.20;;;8.40;99.90;;;;;;4962380;28;20560;-79
2023/12/05 12:51:33;;;;;;;11.70;11.30;;;8.40;99.90;;;;;;4959148;28;21444;-80
2023/12/05 12:54:03;;;;;;;12.67;12.33;;;8.50;99.90;;;;;;4964414;28;20460;-79